createdAt,value
2017-10-06T00:02:15.329Z,4.13
2017-10-06T00:07:16.197Z,3.87
2017-10-06T00:12:17.087Z,5.67
2017-10-06T00:17:17.953Z,8.17
2017-10-06T00:22:18.846Z,4.70
2017-10-06T00:27:19.737Z,3.83
2017-10-06T00:32:20.617Z,5.60
2017-10-06T00:37:21.495Z,9.50
2017-10-06T00:42:22.369Z,7.13
2017-10-06T00:47:23.268Z,7.23
2017-10-06T00:52:24.135Z,3.40
2017-10-06T00:57:25.028Z,4.77
2017-10-06T01:02:25.924Z,5.87
2017-10-06T01:07:26.821Z,4.33
2017-10-06T01:12:27.685Z,4.63
2017-10-06T01:17:28.565Z,5.13
2017-10-06T01:22:29.445Z,7.00
2017-10-06T01:27:30.324Z,3.57
2017-10-06T01:32:31.197Z,3.60
2017-10-06T01:37:32.090Z,4.73
2017-10-06T01:42:32.974Z,3.80
2017-10-06T01:47:33.878Z,3.70
2017-10-06T01:52:35.515Z,4.07
2017-10-06T01:57:36.400Z,6.40
2017-10-06T02:02:37.267Z,4.90
2017-10-06T02:07:38.148Z,14.13
2017-10-06T02:12:39.044Z,6.83
2017-10-06T02:17:39.923Z,5.37
2017-10-06T02:22:40.805Z,6.33
2017-10-06T02:27:41.711Z,4.90
2017-10-06T02:32:42.613Z,4.43
2017-10-06T02:37:43.528Z,3.27
2017-10-06T02:42:44.419Z,4.30
2017-10-06T02:47:45.294Z,7.70
2017-10-06T02:52:46.194Z,5.50
2017-10-06T02:57:47.201Z,2.40
2017-10-06T03:02:48.089Z,4.20
2017-10-06T03:07:48.969Z,3.77
2017-10-06T03:12:49.833Z,5.20
2017-10-06T03:17:50.712Z,3.10
2017-10-06T03:22:51.600Z,3.20
2017-10-06T03:27:52.500Z,3.20
2017-10-06T03:32:53.394Z,3.40
2017-10-06T03:37:54.265Z,5.57
2017-10-06T03:42:55.138Z,2.63
2017-10-06T03:47:56.009Z,3.37
2017-10-06T03:52:56.874Z,2.77
2017-10-06T03:57:57.768Z,2.27
2017-10-06T04:02:58.656Z,2.83
2017-10-06T04:07:59.538Z,4.83
2017-10-06T04:13:00.417Z,3.27
2017-10-06T04:18:01.305Z,3.27
2017-10-06T04:23:02.196Z,2.17
2017-10-06T04:28:03.065Z,3.30
2017-10-06T04:33:03.943Z,1.93
2017-10-06T04:38:04.822Z,2.37
2017-10-06T04:43:05.685Z,4.40
2017-10-06T04:48:06.560Z,2.23
2017-10-06T04:53:07.426Z,4.03
2017-10-06T04:58:08.315Z,2.30
2017-10-06T05:03:09.194Z,5.30
2017-10-06T05:08:10.067Z,2.63
2017-10-06T05:13:10.945Z,2.60
2017-10-06T05:18:11.812Z,3.93
2017-10-06T05:23:12.677Z,2.47
2017-10-06T05:28:13.555Z,2.90
2017-10-06T05:33:14.452Z,1.87
2017-10-06T05:38:15.344Z,1.70
2017-10-06T05:43:16.244Z,4.00
2017-10-06T05:48:17.133Z,2.90
2017-10-06T05:53:18.017Z,3.20
2017-10-06T05:58:18.891Z,5.03
2017-10-06T06:03:19.803Z,3.20
2017-10-06T06:08:20.702Z,2.87
2017-10-06T06:13:21.574Z,1.93
2017-10-06T06:18:23.184Z,1.53
2017-10-06T06:23:24.072Z,5.27
2017-10-06T06:28:24.957Z,3.33
2017-10-06T06:33:25.825Z,3.87
2017-10-06T06:38:26.697Z,3.53
2017-10-06T06:43:27.596Z,6.50
2017-10-06T06:48:28.502Z,2.93
2017-10-06T06:53:29.335Z,4.17
2017-10-06T06:58:30.192Z,4.20
2017-10-06T07:03:31.038Z,5.17
2017-10-06T07:08:31.880Z,3.90
2017-10-06T07:13:32.736Z,5.90
2017-10-06T07:18:34.989Z,3.60
2017-10-06T07:23:35.911Z,4.47
2017-10-06T07:28:36.747Z,7.47
2017-10-06T07:33:37.597Z,25.93
2017-10-06T07:38:38.448Z,9.03
2017-10-06T07:43:39.296Z,10.50
2017-10-06T07:48:40.168Z,6.23
2017-10-06T07:53:41.024Z,5.67
2017-10-06T07:58:41.877Z,15.23
2017-10-06T08:03:42.733Z,276.17
2017-10-06T08:08:43.595Z,150.77
2017-10-06T08:13:44.458Z,139.30
2017-10-06T08:18:45.305Z,138.80
2017-10-06T08:23:46.175Z,142.77
2017-10-06T08:28:47.033Z,105.00
2017-10-06T08:33:47.871Z,93.93
2017-10-06T08:38:48.715Z,87.57
2017-10-06T08:43:49.559Z,97.20
2017-10-06T08:48:50.417Z,97.93
2017-10-06T08:53:51.272Z,87.57
2017-10-06T08:58:52.109Z,77.60
2017-10-06T09:03:52.956Z,71.73
2017-10-06T09:08:53.823Z,65.57
2017-10-06T09:13:54.663Z,71.67
2017-10-06T09:18:55.508Z,73.10
2017-10-06T09:23:56.372Z,63.17
2017-10-06T09:28:57.233Z,60.93
2017-10-06T09:33:58.092Z,55.30
2017-10-06T09:38:58.928Z,56.63
2017-10-06T09:43:59.777Z,52.27
2017-10-06T09:49:00.635Z,40.97
2017-10-06T09:54:01.519Z,45.80
2017-10-06T09:59:02.360Z,38.23
2017-10-06T10:04:03.228Z,13.57
2017-10-06T10:09:04.081Z,19.00
2017-10-06T10:14:04.946Z,23.30
2017-10-06T10:19:05.800Z,21.43
2017-10-06T10:24:06.648Z,25.47
2017-10-06T10:29:07.496Z,23.73
2017-10-06T10:34:08.355Z,25.83
2017-10-06T10:39:09.200Z,26.40
2017-10-06T10:44:10.051Z,20.07
2017-10-06T10:49:10.905Z,24.57
2017-10-06T10:54:11.763Z,18.83
2017-10-06T10:59:12.632Z,22.27
2017-10-06T11:04:13.504Z,22.33
2017-10-06T11:09:14.378Z,23.20
2017-10-06T11:14:15.233Z,24.37
2017-10-06T11:19:16.185Z,22.27
2017-10-06T11:24:17.036Z,18.60
2017-10-06T11:29:17.888Z,22.67
2017-10-06T11:34:18.737Z,21.33
2017-10-06T11:39:19.581Z,20.63
2017-10-06T11:44:20.465Z,22.97
2017-10-06T11:49:21.312Z,19.90
2017-10-06T11:54:23.185Z,23.00
2017-10-06T11:59:24.064Z,17.93
2017-10-06T12:04:24.940Z,14.33
2017-10-06T12:09:25.808Z,16.03
2017-10-06T12:14:26.663Z,16.30
2017-10-06T12:19:27.536Z,22.87
2017-10-06T12:24:28.376Z,21.13
2017-10-06T12:29:29.292Z,16.40
2017-10-06T12:34:30.179Z,17.93
2017-10-06T12:39:31.280Z,11.57
2017-10-06T12:44:32.151Z,15.03
2017-10-06T12:49:33.000Z,14.73
2017-10-06T12:54:33.840Z,15.63
2017-10-06T12:59:34.671Z,17.83
2017-10-06T13:04:35.516Z,11.20
2017-10-06T13:09:36.376Z,14.23
2017-10-06T13:14:37.266Z,11.30
2017-10-06T13:19:38.115Z,19.60
2017-10-06T13:24:38.979Z,11.40
2017-10-06T13:29:39.856Z,12.80
2017-10-06T13:34:40.688Z,10.03
2017-10-06T13:39:41.571Z,14.00
2017-10-06T13:44:42.430Z,10.23
2017-10-06T13:49:43.273Z,11.30
2017-10-06T13:54:44.125Z,10.23
2017-10-06T13:59:44.977Z,9.70
2017-10-06T14:04:45.818Z,11.10
2017-10-06T14:09:46.692Z,11.80
2017-10-06T14:14:47.551Z,9.10
2017-10-06T14:19:48.426Z,11.50
2017-10-06T14:24:49.276Z,9.47
2017-10-06T14:29:50.120Z,10.00
2017-10-06T14:34:50.984Z,11.20
2017-10-06T14:39:52.704Z,10.07
2017-10-06T14:44:53.575Z,7.43
2017-10-06T14:49:54.416Z,9.30
2017-10-06T14:54:55.275Z,11.13
2017-10-06T14:59:56.154Z,9.10
2017-10-06T15:04:56.989Z,10.97
2017-10-06T15:09:57.819Z,8.07
2017-10-06T15:14:58.671Z,15.93
2017-10-06T15:19:59.544Z,15.70
2017-10-06T15:25:00.396Z,17.87
2017-10-06T15:30:01.243Z,14.40
2017-10-06T15:35:02.091Z,13.13
2017-10-06T15:40:02.957Z,11.50
2017-10-06T15:45:03.799Z,13.53
2017-10-06T15:50:04.649Z,12.13
2017-10-06T15:55:05.534Z,12.43
2017-10-06T16:00:06.388Z,15.40
2017-10-06T16:05:07.244Z,12.13
2017-10-06T16:10:08.094Z,9.30
2017-10-06T16:15:08.956Z,14.23
2017-10-06T16:20:09.828Z,16.53
2017-10-06T16:25:10.694Z,65.93
2017-10-06T16:30:11.528Z,47.03
2017-10-06T16:35:12.411Z,69.27
2017-10-06T16:40:14.016Z,81.77
2017-10-06T16:45:14.918Z,95.33
2017-10-06T16:50:15.781Z,86.50
2017-10-06T16:55:16.664Z,92.90
2017-10-06T17:00:17.511Z,90.47
2017-10-06T17:05:18.455Z,86.83
2017-10-06T17:10:19.324Z,101.13
2017-10-06T17:15:20.173Z,107.73
2017-10-06T17:20:21.056Z,82.70
2017-10-06T17:25:21.946Z,86.80
2017-10-06T17:30:22.845Z,92.30
2017-10-06T17:35:23.720Z,91.50
2017-10-06T17:40:24.575Z,101.53
2017-10-06T17:45:25.488Z,79.57
2017-10-06T17:50:26.369Z,83.77
2017-10-06T17:55:27.214Z,82.27
2017-10-06T18:00:28.067Z,80.67
2017-10-06T18:05:28.921Z,71.43
2017-10-06T18:10:29.796Z,70.53
2017-10-06T18:15:30.659Z,72.30
2017-10-06T18:20:31.542Z,66.73
2017-10-06T18:25:32.384Z,65.43
2017-10-06T18:30:33.252Z,65.87
2017-10-06T18:35:34.117Z,65.80
2017-10-06T18:40:35.013Z,66.37
2017-10-06T18:45:35.888Z,70.90
2017-10-06T18:50:36.819Z,64.07
2017-10-06T18:55:37.709Z,54.57
2017-10-06T19:00:38.578Z,61.57
2017-10-06T19:05:39.429Z,48.83
2017-10-06T19:10:40.282Z,61.20
2017-10-06T19:15:41.147Z,48.00
2017-10-06T19:20:42.043Z,56.13
2017-10-06T19:25:42.913Z,58.73
2017-10-06T19:30:43.798Z,51.53
2017-10-06T19:35:44.686Z,48.60
2017-10-06T19:40:45.583Z,52.63
2017-10-06T19:45:46.520Z,47.53
2017-10-06T19:50:47.428Z,46.47
2017-10-06T19:55:48.349Z,43.90
2017-10-06T20:00:49.255Z,44.73
2017-10-06T20:05:50.126Z,41.67
2017-10-06T20:10:51.106Z,44.63
2017-10-06T20:15:51.956Z,46.43
2017-10-06T20:20:52.846Z,40.53
2017-10-06T20:25:53.705Z,39.97
2017-10-06T20:30:54.588Z,41.80
2017-10-06T20:35:55.462Z,38.00
2017-10-06T20:40:56.333Z,38.63
2017-10-06T20:45:57.182Z,38.50
2017-10-06T20:50:58.163Z,36.33
2017-10-06T20:55:59.026Z,34.80
2017-10-06T21:00:59.871Z,30.30
2017-10-06T21:06:01.435Z,36.73
2017-10-06T21:11:02.337Z,32.20
2017-10-06T21:16:03.200Z,34.80
2017-10-06T21:21:04.043Z,34.87
2017-10-06T21:26:04.968Z,32.07
2017-10-06T21:31:05.824Z,30.27
2017-10-06T21:36:06.675Z,30.93
2017-10-06T21:41:07.514Z,32.23
2017-10-06T21:46:08.367Z,27.20
2017-10-06T21:51:09.226Z,36.73
2017-10-06T21:56:10.072Z,26.73
2017-10-06T22:01:10.952Z,29.77
2017-10-06T22:06:11.792Z,24.67
2017-10-06T22:11:12.667Z,25.50
2017-10-06T22:16:13.556Z,28.30
2017-10-06T22:21:14.406Z,25.87
2017-10-06T22:26:15.260Z,25.17
2017-10-06T22:31:16.124Z,23.87
2017-10-06T22:36:16.987Z,23.80
2017-10-06T22:41:17.837Z,23.13
2017-10-06T22:46:18.711Z,19.90
2017-10-06T22:51:19.552Z,21.87
2017-10-06T22:56:20.406Z,20.60
2017-10-06T23:01:21.277Z,23.77
2017-10-06T23:06:22.127Z,21.47
2017-10-06T23:11:22.979Z,20.67
2017-10-06T23:16:23.819Z,23.30
2017-10-06T23:21:24.679Z,21.60
2017-10-06T23:26:25.512Z,20.40
2017-10-06T23:31:26.362Z,20.23
2017-10-06T23:36:27.187Z,19.00
2017-10-06T23:41:28.036Z,18.50
2017-10-06T23:46:28.887Z,19.17
2017-10-06T23:51:29.743Z,17.47
2017-10-06T23:56:30.596Z,17.43
